sensor_id;sensor_type;location;lat;lon;timestamp;pressure;altitude;pressure_sealevel;temperature
77385;BMP280;66444;49.680;18.538;2023-04-15T00:03:57;96158.54301181261;;;8.52279603742063
77385;BMP280;66444;49.680;18.538;2023-04-15T00:09:08;96173.62235976405;;;8.482080250047147
77385;BMP280;66444;49.680;18.538;2023-04-15T00:14:20;96181.76144746286;;;8.359930652752519
77385;BMP280;66444;49.680;18.538;2023-04-15T00:19:33;96198.36237624532;;;8.329392729559913
77385;BMP280;66444;49.680;18.538;2023-04-15T00:24:44;96199.12727627678;;;8.334482397977263
77385;BMP280;66444;49.680;18.538;2023-04-15T00:29:56;96198.95413044535;;;8.227598138852045
77385;BMP280;66444;49.680;18.538;2023-04-15T00:35:08;96187.5912762848;;;7.993461744301021
77385;BMP280;66444;49.680;18.538;2023-04-15T00:40:22;96195.98272076216;;;7.820396492956206
77385;BMP280;66444;49.680;18.538;2023-04-15T00:45:34;96204.46527444497;;;7.912020111270249
77385;BMP280;66444;49.680;18.538;2023-04-15T00:50:46;96217.28472262326;;;7.891659470181912
77385;BMP280;66444;49.680;18.538;2023-04-15T00:56:03;96223.05776304455;;;7.947651009075344
77385;BMP280;66444;49.680;18.538;2023-04-15T01:01:15;96230.23338133284;;;7.942560898279771
77385;BMP280;66444;49.680;18.538;2023-04-15T01:06:31;96242.85378363598;;;7.815306236641481
77385;BMP280;66444;49.680;18.538;2023-04-15T01:11:43;96247.24487285197;;;7.73895169342868
77385;BMP280;66444;49.680;18.538;2023-04-15T01:17:00;96253.50729830125;;;7.850937908608467
77385;BMP280;66444;49.680;18.538;2023-04-15T01:22:12;96260.33229672795;;;7.861118333926425
77385;BMP280;66444;49.680;18.538;2023-04-15T01:27:24;96249.72276581051;;;8.054541991185397
77385;BMP280;66444;49.680;18.538;2023-04-15T01:32:40;96249.43545396367;;;8.105441556638107
77385;BMP280;66444;49.680;18.538;2023-04-15T01:37:52;96256.19835373391;;;8.079991846671328
77385;BMP280;66444;49.680;18.538;2023-04-15T01:43:11;96259.89766166994;;;8.034182002022863
77385;BMP280;66444;49.680;18.538;2023-04-15T01:48:23;96264.4918342785;;;8.064721950842067
77385;BMP280;66444;49.680;18.538;2023-04-15T01:53:35;96258.36628703547;;;8.024001972516999
77385;BMP280;66444;49.680;18.538;2023-04-15T01:58:47;96264.29524648473;;;7.95783121320419
77385;BMP280;66444;49.680;18.538;2023-04-15T02:03:59;96263.81225653361;;;7.901839802367613
77385;BMP280;66444;49.680;18.538;2023-04-15T02:09:11;96267.85538865882;;;7.840757460007444
77385;BMP280;66444;49.680;18.538;2023-04-15T02:14:22;96277.60669578596;;;7.800035432772711
77385;BMP280;66444;49.680;18.538;2023-04-15T02:19:34;96285.12798572585;;;7.779674279456958
77385;BMP280;66444;49.680;18.538;2023-04-15T02:24:47;96287.00820591561;;;7.774583976576105
77385;BMP280;66444;49.680;18.538;2023-04-15T02:29:59;96285.0575436121;;;7.744042037054896
77385;BMP280;66444;49.680;18.538;2023-04-15T02:35:11;96297.10342873173;;;7.718590260716155
77385;BMP280;66444;49.680;18.538;2023-04-15T02:40:28;96299.33035164377;;;7.698228734871373
77385;BMP280;66444;49.680;18.538;2023-04-15T02:45:40;96298.21693026634;;;7.708409509435296
77385;BMP280;66444;49.680;18.538;2023-04-15T02:51:10;96297.65209546738;;;7.616781700169668
77385;BMP280;66444;49.680;18.538;2023-04-15T02:56:23;96300.57018891753;;;7.56587654678151
77385;BMP280;66444;49.680;18.538;2023-04-15T03:01:35;96293.32617222446;;;7.535333175351843
77385;BMP280;66444;49.680;18.538;2023-04-15T03:06:46;96287.34290205872;;;7.56587654678151
77385;BMP280;66444;49.680;18.538;2023-04-15T03:12:03;96294.85901551807;;;7.545514322444797
77385;BMP280;66444;49.680;18.538;2023-04-15T03:17:15;96301.41060621524;;;7.606600716058165
77385;BMP280;66444;49.680;18.538;2023-04-15T03:22:27;96302.25043830165;;;7.64732451280579
77385;BMP280;66444;49.680;18.538;2023-04-15T03:27:40;96297.50438697693;;;7.545514322444797
77385;BMP280;66444;49.680;18.538;2023-04-15T03:32:52;96296.5123481838;;;7.4335204238537695
77385;BMP280;66444;49.680;18.538;2023-04-15T03:38:04;96293.36984391444;;;7.377522418089211
77385;BMP280;66444;49.680;18.538;2023-04-15T03:43:16;96300.11520840185;;;7.352068546274677
77385;BMP280;66444;49.680;18.538;2023-04-15T03:48:28;96304.55960202326;;;7.311342048691586
77385;BMP280;66444;49.680;18.538;2023-04-15T03:53:40;96321.27160253565;;;7.352068546274677
77385;BMP280;66444;49.680;18.538;2023-04-15T03:58:52;96310.00444482699;;;7.382613174989819
77385;BMP280;66444;49.680;18.538;2023-04-15T04:04:00;96313.6034856065;;;7.301160366088152
77385;BMP280;66444;49.680;18.538;2023-04-15T04:09:08;96314.29111116908;;;7.270615178579464
77385;BMP280;66444;49.680;18.538;2023-04-15T04:14:16;96318.73259877617;;;7.229887935938313
77385;BMP280;66444;49.680;18.538;2023-04-15T04:19:24;96311.66829568248;;;7.112795038241893
77385;BMP280;66444;49.680;18.538;2023-04-15T04:24:33;96326.077621251;;;7.138250277936459
77385;BMP280;66444;49.680;18.538;2023-04-15T04:29:41;96335.54279809239;;;7.148432333068922
77385;BMP280;66444;49.680;18.538;2023-04-15T04:34:49;96330.77368592675;;;7.04661073400639
77385;BMP280;66444;49.680;18.538;2023-04-15T04:39:58;96334.78265489399;;;6.9855166569817815
77385;BMP280;66444;49.680;18.538;2023-04-15T04:45:06;96328.813790665;;;7.016063800267875
77385;BMP280;66444;49.680;18.538;2023-04-15T04:50:15;96336.48574057351;;;7.066975240083411
77385;BMP280;66444;49.680;18.538;2023-04-15T04:55:23;96328.54173573412;;;7.2247970044147225
77385;BMP280;66444;49.680;18.538;2023-04-15T05:00:31;96341.20966991501;;;7.484427090641111
77385;BMP280;66444;49.680;18.538;2023-04-15T05:05:39;96340.28226307177;;;7.759313033008948
77385;BMP280;66444;49.680;18.538;2023-04-15T05:10:47;96346.15010943865;;;8.044362008245661
77385;BMP280;66444;49.680;18.538;2023-04-15T05:15:55;96345.99078616186;;;8.359930652752519
77385;BMP280;66444;49.680;18.538;2023-04-15T05:21:03;96338.71242306118;;;8.52279603742063
77385;BMP280;66444;49.680;18.538;2023-04-15T05:26:12;96349.84942507424;;;8.614405196951703
77385;BMP280;66444;49.680;18.538;2023-04-15T05:31:20;96359.69358179552;;;8.838330758502707
77385;BMP280;66444;49.680;18.538;2023-04-15T05:36:29;96360.69006175517;;;8.985911899153143
77385;BMP280;66444;49.680;18.538;2023-04-15T05:41:37;96364.51859792107;;;9.0113564286381
77385;BMP280;66444;49.680;18.538;2023-04-15T05:46:45;96376.88108274675;;;9.164020549645647
77385;BMP280;66444;49.680;18.538;2023-04-15T05:51:53;96378.11905723094;;;9.489686498930677
77385;BMP280;66444;49.680;18.538;2023-04-15T05:57:02;96382.90687315956;;;9.662686837092043
77385;BMP280;66444;49.680;18.538;2023-04-15T06:02:10;96379.80768101788;;;9.9069111533463
77385;BMP280;66444;49.680;18.538;2023-04-15T06:07:25;96391.25145365846;;;10.283397365966811
77385;BMP280;66444;49.680;18.538;2023-04-15T06:12:33;96383.97002082039;;;10.588633057801053
77385;BMP280;66444;49.680;18.538;2023-04-15T06:17:42;96382.63582162945;;;10.792111877491697
77385;BMP280;66444;49.680;18.538;2023-04-15T06:22:50;96388.81010696667;;;10.904021258559078
77385;BMP280;66444;49.680;18.538;2023-04-15T06:27:59;96388.01606311656;;;10.86332726413384
77385;BMP280;66444;49.680;18.538;2023-04-15T06:33:07;96390.73530479701;;;10.93454150990583
77385;BMP280;66444;49.680;18.538;2023-04-15T06:38:16;96396.56491873815;;;11.09731264472939
77385;BMP280;66444;49.680;18.538;2023-04-15T06:43:24;96399.74944663269;;;11.295681906444951
77385;BMP280;66444;49.680;18.538;2023-04-15T06:48:32;96405.97458160722;;;11.514386471454054
77385;BMP280;66444;49.680;18.538;2023-04-15T06:53:41;96396.9998207839;;;11.809366277558729
77385;BMP280;66444;49.680;18.538;2023-04-15T06:58:49;96400.0851497162;;;11.900907753221691
77385;BMP280;66444;49.680;18.538;2023-04-15T07:03:57;96397.87713016398;;;12.099241147376597
77385;BMP280;66444;49.680;18.538;2023-04-15T07:09:05;96407.02371588128;;;12.124667865317315
77385;BMP280;66444;49.680;18.538;2023-04-15T07:14:13;96408.57350539803;;;12.20603238483891
77385;BMP280;66444;49.680;18.538;2023-04-15T07:19:22;96402.5265225571;;;12.378927041171119
77385;BMP280;66444;49.680;18.538;2023-04-15T07:24:30;96401.36915143975;;;12.317906166100874
77385;BMP280;66444;49.680;18.538;2023-04-15T07:29:38;96402.55481681986;;;12.521305823372677
77385;BMP280;66444;49.680;18.538;2023-04-15T07:34:47;96396.48853694958;;;12.907739514252171
77385;BMP280;66444;49.680;18.538;2023-04-15T07:39:56;96404.85864757231;;;13.212794995168224
77385;BMP280;66444;49.680;18.538;2023-04-15T07:45:05;96406.37331981739;;;13.294139584386722
77385;BMP280;66444;49.680;18.538;2023-04-15T07:50:14;96400.98842880428;;;13.507662041392177
77385;BMP280;66444;49.680;18.538;2023-04-15T07:55:28;96413.05759319343;;;13.944842653954401
77385;BMP280;66444;49.680;18.538;2023-04-15T08:00:36;96414.73221510625;;;14.40231114802882
77385;BMP280;66444;49.680;18.538;2023-04-15T08:05:45;96410.23383663918;;;14.819074727920816
77385;BMP280;66444;49.680;18.538;2023-04-15T08:10:53;96413.72594806201;;;15.20022665928118
77385;BMP280;66444;49.680;18.538;2023-04-15T08:16:18;96417.92066894835;;;15.586427216837183
77385;BMP280;66444;49.680;18.538;2023-04-15T08:21:29;96424.04147098654;;;15.591508579021319
77385;BMP280;66444;49.680;18.538;2023-04-15T08:26:38;96425.63943517924;;;15.530531848641113
77385;BMP280;66444;49.680;18.538;2023-04-15T08:31:46;96427.92025285786;;;15.545776109816506
77385;BMP280;66444;49.680;18.538;2023-04-15T08:36:55;96429.15865622168;;;15.804920534603298
77385;BMP280;66444;49.680;18.538;2023-04-15T08:42:04;96419.06256734679;;;15.916703651612625
77385;BMP280;66444;49.680;18.538;2023-04-15T08:47:19;96426.57044110465;;;16.03864565710537
77385;BMP280;66444;49.680;18.538;2023-04-15T08:52:29;96428.4468855202;;;16.06913063460961
77385;BMP280;66444;49.680;18.538;2023-04-15T08:57:39;96432.55762167361;;;15.845569266751408
77385;BMP280;66444;49.680;18.538;2023-04-15T09:02:47;96439.28546010965;;;15.657565757725388
77385;BMP280;66444;49.680;18.538;2023-04-15T09:07:56;96437.80397445835;;;15.611833969550208
77385;BMP280;66444;49.680;18.538;2023-04-15T09:13:06;96434.00250879493;;;15.586427216837183
77385;BMP280;66444;49.680;18.538;2023-04-15T09:18:26;96431.12929102598;;;16.06913063460961
77385;BMP280;66444;49.680;18.538;2023-04-15T09:23:38;96431.75419773266;;;16.45017517283559
77385;BMP280;66444;49.680;18.538;2023-04-15T09:28:48;96440.41214254273;;;16.292680733464657
77385;BMP280;66444;49.680;18.538;2023-04-15T09:33:57;96436.89688501172;;;16.05388817205094
77385;BMP280;66444;49.680;18.538;2023-04-15T09:39:07;96440.8748302995;;;15.937027552025393
77385;BMP280;66444;49.680;18.538;2023-04-15T09:44:23;96443.28339177396;;;15.845569266751408
77385;BMP280;66444;49.680;18.538;2023-04-15T09:49:33;96431.45166534065;;;16.394290689472108
77385;BMP280;66444;49.680;18.538;2023-04-15T09:54:43;96439.18975619889;;;16.607664018450304
77385;BMP280;66444;49.680;18.538;2023-04-15T09:59:52;96438.94298550505;;;16.516219563316554
77385;BMP280;66444;49.680;18.538;2023-04-15T10:05:01;96443.80609219456;;;16.333324995264412
77385;BMP280;66444;49.680;18.538;2023-04-15T10:10:13;96439.39327124634;;;16.196149118663744
77385;BMP280;66444;49.680;18.538;2023-04-15T10:15:22;96441.14423066669;;;16.028483951371165
77385;BMP280;66444;49.680;18.538;2023-04-15T10:20:37;96441.76314393211;;;15.835407118638978
77385;BMP280;66444;49.680;18.538;2023-04-15T10:25:47;96443.28339177396;;;15.845569266751408
77385;BMP280;66444;49.680;18.538;2023-04-15T10:30:58;96446.12793511359;;;15.703297074418515
77385;BMP280;66444;49.680;18.538;2023-04-15T10:36:13;96452.21025133012;;;15.7439467378892
77385;BMP280;66444;49.680;18.538;2023-04-15T10:41:28;96444.3167171065;;;15.94210851257667
77385;BMP280;66444;49.680;18.538;2023-04-15T10:46:37;96438.10449856178;;;16.008160470053554
77385;BMP280;66444;49.680;18.538;2023-04-15T10:51:50;96439.08174320369;;;15.835407118638978
77385;BMP280;66444;49.680;18.538;2023-04-15T10:57:06;96443.37875016467;;;16.079292247211562
77385;BMP280;66444;49.680;18.538;2023-04-15T11:02:21;96444.09278334006;;;16.11993846478872
77385;BMP280;66444;49.680;18.538;2023-04-15T11:07:48;96449.54865606503;;;16.048807339556515
77385;BMP280;66444;49.680;18.538;2023-04-15T11:12:59;96450.52576145007;;;15.876055571390316
77385;BMP280;66444;49.680;18.538;2023-04-15T11:18:24;96441.84595309004;;;15.764271429926158
77385;BMP280;66444;49.680;18.538;2023-04-15T11:23:36;96441.08576455357;;;15.759190265648067
77385;BMP280;66444;49.680;18.538;2023-04-15T11:28:46;96454.32657570166;;;15.901460665185004
77385;BMP280;66444;49.680;18.538;2023-04-15T11:33:55;96450.26358963997;;;16.089453836530446
77385;BMP280;66444;49.680;18.538;2023-04-15T11:39:06;96457.67622395724;;;16.28251960980706
77385;BMP280;66444;49.680;18.538;2023-04-15T11:44:15;96452.2121179101;;;16.3536469864659
77385;BMP280;66444;49.680;18.538;2023-04-15T11:49:30;96455.86007975157;;;16.485737659176813
77385;BMP280;66444;49.680;18.538;2023-04-15T11:54:44;96463.95222593549;;;16.719426902476698
77385;BMP280;66444;49.680;18.538;2023-04-15T11:59:53;96461.2669663045;;;16.719426902476698
77385;BMP280;66444;49.680;18.538;2023-04-15T12:05:08;96464.92406847734;;;16.58226297008805
77385;BMP280;66444;49.680;18.538;2023-04-15T12:10:16;96465.07760934184;;;16.475576977897436
77385;BMP280;66444;49.680;18.538;2023-04-15T12:15:25;96471.9655556885;;;16.485737659176813
77385;BMP280;66444;49.680;18.538;2023-04-15T12:20:42;96470.24144306625;;;16.617824397049844
77385;BMP280;66444;49.680;18.538;2023-04-15T12:25:51;96477.73159500131;;;16.739747124165298
77385;BMP280;66444;49.680;18.538;2023-04-15T12:31:00;96468.39935412118;;;16.821027079597116
77385;BMP280;66444;49.680;18.538;2023-04-15T12:36:19;96470.4889224638;;;16.7092667567078
77385;BMP280;66444;49.680;18.538;2023-04-15T12:41:28;96471.15542723055;;;16.516219563316554
77385;BMP280;66444;49.680;18.538;2023-04-15T12:46:36;96479.66316089207;;;16.465416273334995
77385;BMP280;66444;49.680;18.538;2023-04-15T12:51:45;96482.80050571218;;;16.414612401276827
77385;BMP280;66444;49.680;18.538;2023-04-15T12:56:55;96476.72113505454;;;16.373968884535135
77385;BMP280;66444;49.680;18.538;2023-04-15T13:02:10;96475.3892503635;;;16.221552378917114
77385;BMP280;66444;49.680;18.538;2023-04-15T13:07:18;96479.23529423279;;;16.211391092278063
77385;BMP280;66444;49.680;18.538;2023-04-15T13:12:27;96480.169186934;;;16.648305393150075
77385;BMP280;66444;49.680;18.538;2023-04-15T13:17:36;96479.95630148824;;;16.790547270933168
77385;BMP280;66444;49.680;18.538;2023-04-15T13:22:45;96490.09754723415;;;16.67878617970273
77385;BMP280;66444;49.680;18.538;2023-04-15T13:27:54;96495.81640903378;;;16.42985362401232
77385;BMP280;66444;49.680;18.538;2023-04-15T13:33:03;96494.70475598218;;;16.09961540256627
77385;BMP280;66444;49.680;18.538;2023-04-15T13:38:13;96502.78804765819;;;15.723621952719986
77385;BMP280;66444;49.680;18.538;2023-04-15T13:43:21;96511.50019632714;;;15.423820553580299
77385;BMP280;66444;49.680;18.538;2023-04-15T13:48:30;96511.65175869831;;;15.24596269079484
77385;BMP280;66444;49.680;18.538;2023-04-15T13:53:39;96517.90751572096;;;15.073179653473199
77385;BMP280;66444;49.680;18.538;2023-04-15T13:58:47;96530.37042952774;;;14.727593392413109
77385;BMP280;66444;49.680;18.538;2023-04-15T14:03:56;96537.38845330528;;;14.45313807032071
77385;BMP280;66444;49.680;18.538;2023-04-15T14:09:05;96553.49514805547;;;14.310821221070364
77385;BMP280;66444;49.680;18.538;2023-04-15T14:14:13;96546.66650570977;;;14.158333818521351
77385;BMP280;66444;49.680;18.538;2023-04-15T14:19:22;96568.48421453832;;;13.965175588196143
77385;BMP280;66444;49.680;18.538;2023-04-15T14:24:31;96571.94442453337;;;13.79234267855063
77385;BMP280;66444;49.680;18.538;2023-04-15T14:29:45;96572.71073703724;;;13.761842054827138
77385;BMP280;66444;49.680;18.538;2023-04-15T14:34:54;96581.48880766105;;;13.802509506559
77385;BMP280;66444;49.680;18.538;2023-04-15T14:40:12;96584.91361201744;;;13.914343077968805
77385;BMP280;66444;49.680;18.538;2023-04-15T14:45:26;96572.67016822459;;;14.046506393840536
77385;BMP280;66444;49.680;18.538;2023-04-15T14:50:35;96570.27037787913;;;14.422641986794769
77385;BMP280;66444;49.680;18.538;2023-04-15T14:55:44;96577.75164321008;;;17.08517664363608
77385;BMP280;66444;49.680;18.538;2023-04-15T15:00:53;96576.5472477623;;;20.142069986229764
77385;BMP280;66444;49.680;18.538;2023-04-15T15:06:01;96583.83492544496;;;19.431352801295
77385;BMP280;66444;49.680;18.538;2023-04-15T15:11:11;96586.54135645584;;;18.943937936844303
77385;BMP280;66444;49.680;18.538;2023-04-15T15:16:20;96581.40531959495;;;18.476781687093897
77385;BMP280;66444;49.680;18.538;2023-04-15T15:21:29;96591.7918551283;;;20.2080593646504
77385;BMP280;66444;49.680;18.538;2023-04-15T15:26:38;96581.9973197143;;;20.90342608271167
77385;BMP280;66444;49.680;18.538;2023-04-15T15:31:52;96593.78918480656;;;20.837447071075438
77385;BMP280;66444;49.680;18.538;2023-04-15T15:37:01;96595.87575633482;;;22.268463316885754
77385;BMP280;66444;49.680;18.538;2023-04-15T15:42:10;96589.45203395712;;;21.461670649843292
77385;BMP280;66444;49.680;18.538;2023-04-15T15:47:20;96596.63019772709;;;19.5531981355045
77385;BMP280;66444;49.680;18.538;2023-04-15T15:52:34;96591.70865543958;;;18.329515700181947
77385;BMP280;66444;49.680;18.538;2023-04-15T15:57:48;96595.92373369659;;;18.141617506276816
77385;BMP280;66444;49.680;18.538;2023-04-15T16:02:57;96604.49274363244;;;20.87297435342334
77385;BMP280;66444;49.680;18.538;2023-04-15T16:08:06;96599.3041123065;;;22.98379785581492
77385;BMP280;66444;49.680;18.538;2023-04-15T16:13:14;96588.64766444224;;;23.31352303493768
77385;BMP280;66444;49.680;18.538;2023-04-15T16:18:28;96604.00673002546;;;21.268830489460377
77385;BMP280;66444;49.680;18.538;2023-04-15T16:23:37;96604.02770183502;;;19.675040116952733
77385;BMP280;66444;49.680;18.538;2023-04-15T16:28:46;96610.92442381434;;;18.710365970339627
77385;BMP280;66444;49.680;18.538;2023-04-15T16:33:54;96622.14647222377;;;18.100989822018892
77385;BMP280;66444;49.680;18.538;2023-04-15T16:39:03;96623.66551032983;;;18.11114677800797
77385;BMP280;66444;49.680;18.538;2023-04-15T16:44:12;96630.8512502027;;;18.375219461368395
77385;BMP280;66444;49.680;18.538;2023-04-15T16:49:20;96637.1708841867;;;19.030254894401878
77385;BMP280;66444;49.680;18.538;2023-04-15T16:54:29;96644.5022570744;;;18.07051881435327
77385;BMP280;66444;49.680;18.538;2023-04-15T16:59:37;96657.64888444022;;;17.04453927362338
77385;BMP280;66444;49.680;18.538;2023-04-15T17:04:46;96673.72952234006;;;16.43493401994929
77385;BMP280;66444;49.680;18.538;2023-04-15T17:09:54;96681.997514227;;;15.774433741020038
77385;BMP280;66444;49.680;18.538;2023-04-15T17:15:03;96701.5223090475;;;15.154490156285465
77385;BMP280;66444;49.680;18.538;2023-04-15T17:20:17;96699.79779687665;;;14.625945252180099
77385;BMP280;66444;49.680;18.538;2023-04-15T17:25:26;96714.00100739743;;;14.168499808339401
77385;BMP280;66444;49.680;18.538;2023-04-15T17:30:40;96724.28996756308;;;13.79234267855063
77385;BMP280;66444;49.680;18.538;2023-04-15T17:35:49;96732.23401413592;;;13.472075678268448
77385;BMP280;66444;49.680;18.538;2023-04-15T17:40:58;96746.63779279061;;;13.212794995168224
77385;BMP280;66444;49.680;18.538;2023-04-15T17:46:06;96746.53545555728;;;12.999258358776569
77385;BMP280;66444;49.680;18.538;2023-04-15T17:51:16;96750.96260659311;;;12.745034689595922
77385;BMP280;66444;49.680;18.538;2023-04-15T17:56:26;96759.55762476807;;;12.500966276740655
77385;BMP280;66444;49.680;18.538;2023-04-15T18:01:35;96765.05566762008;;;12.236543695488944
77385;BMP280;66444;49.680;18.538;2023-04-15T18:06:44;96777.05212989348;;;12.033130999701097
77385;BMP280;66444;49.680;18.538;2023-04-15T18:11:52;96782.96592068035;;;11.860222885757684
77385;BMP280;66444;49.680;18.538;2023-04-15T18:17:06;96786.60370917407;;;11.70765131493099
77385;BMP280;66444;49.680;18.538;2023-04-15T18:22:25;96795.641679771;;;11.626277668448164
77385;BMP280;66444;49.680;18.538;2023-04-15T18:27:35;96807.74320420412;;;11.565246455697343
77385;BMP280;66444;49.680;18.538;2023-04-15T18:32:44;96822.50376657462;;;11.504214404756203
77385;BMP280;66444;49.680;18.538;2023-04-15T18:37:53;96827.32945207298;;;11.41266475673765
77385;BMP280;66444;49.680;18.538;2023-04-15T18:43:03;96834.09356538593;;;11.351630610320717
77385;BMP280;66444;49.680;18.538;2023-04-15T18:48:16;96833.17765523918;;;11.23973249825649
77385;BMP280;66444;49.680;18.538;2023-04-15T18:53:26;96851.24373655261;;;11.11257213302888
77385;BMP280;66444;49.680;18.538;2023-04-15T18:58:36;96854.15404121697;;;11.02610100666061
77385;BMP280;66444;49.680;18.538;2023-04-15T19:03:44;96860.48911757977;;;10.944714880455285
77385;BMP280;66444;49.680;18.538;2023-04-15T19:08:58;96873.79208105581;;;10.944714880455285
77385;BMP280;66444;49.680;18.538;2023-04-15T19:14:07;96885.26025244204;;;10.985408129822464
77385;BMP280;66444;49.680;18.538;2023-04-15T19:19:16;96902.76204355163;;;10.995581383956596
77385;BMP280;66444;49.680;18.538;2023-04-15T19:24:25;96908.91025685758;;;11.036274167662487
77385;BMP280;66444;49.680;18.538;2023-04-15T19:29:34;96907.37319202271;;;11.02610100666061
77385;BMP280;66444;49.680;18.538;2023-04-15T19:34:43;96908.91025685758;;;11.036274167662487
77385;BMP280;66444;49.680;18.538;2023-04-15T19:39:52;96922.6289024409;;;11.056620419817046
77385;BMP280;66444;49.680;18.538;2023-04-15T19:45:01;96925.88140262106;;;10.954888227721677
77385;BMP280;66444;49.680;18.538;2023-04-15T19:50:11;96928.29764285403;;;10.812459247233345
77385;BMP280;66444;49.680;18.538;2023-04-15T19:55:20;96930.41572563742;;;10.7208953499794
77385;BMP280;66444;49.680;18.538;2023-04-15T20:00:35;96934.90176012043;;;10.68019967917353
77385;BMP280;66444;49.680;18.538;2023-04-15T20:05:48;96944.70518353194;;;10.639503635838627
77385;BMP280;66444;49.680;18.538;2023-04-15T20:11:01;96938.5516276589;;;10.598807219974697
77385;BMP280;66444;49.680;18.538;2023-04-15T20:16:15;96949.18829084921;;;10.598807219974697
77385;BMP280;66444;49.680;18.538;2023-04-15T20:21:28;96950.30886589974;;;10.588633057801053
77385;BMP280;66444;49.680;18.538;2023-04-15T20:26:41;96953.67010681484;;;10.558110431581735
77385;BMP280;66444;49.680;18.538;2023-04-15T20:31:55;96959.68949225811;;;10.52758759581484
77385;BMP280;66444;49.680;18.538;2023-04-15T20:37:08;96971.02539166539;;;10.497064550500363
77385;BMP280;66444;49.680;18.538;2023-04-15T20:42:22;96972.07510594984;;;10.451279589626939
77385;BMP280;66444;49.680;18.538;2023-04-15T20:47:41;96977.74175762165;;;10.436017831228673
77385;BMP280;66444;49.680;18.538;2023-04-15T20:52:54;96977.94820912942;;;10.349533544108272
77385;BMP280;66444;49.680;18.538;2023-04-15T20:58:07;96984.31013221474;;;10.303747064014896
77385;BMP280;66444;49.680;18.538;2023-04-15T21:03:21;96995.63786894665;;;10.273222482018173
77385;BMP280;66444;49.680;18.538;2023-04-15T21:08:34;97000.25773149106;;;10.303747064014896
77385;BMP280;66444;49.680;18.538;2023-04-15T21:13:47;97012.27949754444;;;10.24269769047387
77385;BMP280;66444;49.680;18.538;2023-04-15T21:19:01;97020.44586460752;;;10.156209643138572
77385;BMP280;66444;49.680;18.538;2023-04-15T21:24:14;97018.82757246582;;;10.110421172343194
77385;BMP280;66444;49.680;18.538;2023-04-15T21:29:27;97021.06038257413;;;10.090070589538664
77385;BMP280;66444;49.680;18.538;2023-04-15T21:34:40;97025.87054898865;;;10.034106006613001
77385;BMP280;66444;49.680;18.538;2023-04-15T21:39:54;97026.90639207125;;;9.988316278532148
77385;BMP280;66444;49.680;18.538;2023-04-15T21:45:07;97032.82795897232;;;9.922174727823585
77385;BMP280;66444;49.680;18.538;2023-04-15T21:50:21;97038.05840791953;;;9.886559639219195
77385;BMP280;66444;49.680;18.538;2023-04-15T21:55:34;97039.51712201363;;;9.861120115593076
77385;BMP280;66444;49.680;18.538;2023-04-15T22:59:45;97103.45204941764;;;8.53297492605634
77385;BMP280;66444;49.680;18.538;2023-04-15T23:04:47;97105.23063587127;;;8.370109913917258
77385;BMP280;66444;49.680;18.538;2023-04-15T23:09:49;97112.29496327654;;;8.2072389413137
77385;BMP280;66444;49.680;18.538;2023-04-15T23:14:50;97120.00233600543;;;8.01382191972807
77385;BMP280;66444;49.680;18.538;2023-04-15T23:19:52;97136.07710694686;;;7.840757460007444
77385;BMP280;66444;49.680;18.538;2023-04-15T23:24:53;97130.3041644821;;;7.698228734871373
77385;BMP280;66444;49.680;18.538;2023-04-15T23:29:55;97136.41035469584;;;7.494608354149387